Impacts TAF Board
For situational awareness. Not to be used for flight planning purposes.
IDs:

KBWI - Baltimore-Washington, MD, US

Issued at 1129 UTC 20 Oct 2021
Updated at 1338 UTC 20 Oct 2021
Potential Impact None Slight Moderate High
Time1254Z 20/14Z 20/15Z 20/16Z 20/17Z 20/18Z 20/19Z 20/20Z 20/21Z 20/22Z 20/23Z 21/00Z 21/01Z 21/02Z>>
Type OBS PRVL PRVL PRVL PRVL PRVL PRVL PRVL PRVL PRVL PRVL PRVL PRVL PRVL
VIS 10 >6 >6 >6 >6 >6 >6 >6 >6 >6 >6 >6 >6 >6
CIG -- -- -- -- -- -- -- -- -- -- -- -- -- --
Cover SCT SCT SCT SCT SCT SCT SCT SCT SCT FEW FEW FEW FEW FEW
FltCat VFR VFR VFR VFR VFR VFR VFR VFR VFR VFR VFR VFR VFR VFR
WX -- -- -- -- -- -- -- -- -- -- -- -- -- --
WDir 260 250 250 280 280 280 280 280 280 270 270 270 VRB VRB
WSpd 8 8 8 9 9 9 9 9 9 5 5 5 0 0
WGst -- -- -- 16 16 16 16 16 16 -- -- -- -- --
Raw TAF
KBWI 201129Z 2012/2118 25008KT P6SM FEW150 SCT250
  FM201600 28009G16KT P6SM SCT250
  FM202200 27005KT P6SM FEW250
  FM210100 00000KT P6SM FEW250
  FM211500 17004KT P6SM FEW250


Raw METAR
KBWI 201254Z 26008KT 10SM FEW180 SCT250 17/08 A3014 RMK AO2 SLP206 T01720083
KBWI 201154Z 26007KT 10SM FEW180 BKN250 14/08 A3013 RMK AO2 SLP201 T01390078 10144 20122 51009
KBWI 201054Z 25008KT 10SM FEW180 BKN250 14/07 A3012 RMK AO2 SLP200 T01440072

METAR Board
Radar Display
Forecast Discussion
For situational awareness. Not to be used for flight planning purposes.